Time,TemperatureF,DewpointF,PressureIn,WindDirection,WindDirectionDegrees,WindSpeedMPH,WindSpeedGustMPH,Humidity,HourlyPrecipIn,Conditions,Clouds,dailyrainin,SoftwareType,DateUTC
2013-01-04 00:05:00,28.4,23.0,30.08,WSW,242,3.0,6.0,80,0.00,,,-99.99,open2300 version1.11,2013-01-04 05:05:00,
2013-01-04 00:10:00,28.4,23.0,30.08,WSW,244,3.0,5.6,80,0.00,,,-99.99,open2300 version1.11,2013-01-04 05:10:00,
2013-01-04 00:15:00,28.6,23.2,30.08,South,183,3.3,5.6,80,0.00,,,-99.99,open2300 version1.11,2013-01-04 05:15:00,
2013-01-04 00:20:00,28.6,23.2,30.08,WSW,251,2.8,4.9,80,0.00,,,-99.99,open2300 version1.11,2013-01-04 05:20:00,
2013-01-04 00:30:00,28.2,22.8,30.08,WSW,247,2.4,5.6,80,0.00,,,-99.99,open2300 version1.11,2013-01-04 05:30:00,
2013-01-04 00:35:00,28.2,22.8,30.08,South,183,3.2,6.3,80,0.00,,,-99.99,open2300 version1.11,2013-01-04 05:35:00,
2013-01-04 00:45:00,28.2,23.1,30.08,WSW,252,2.9,5.8,81,0.00,,,-99.99,open2300 version1.11,2013-01-04 05:45:00,
2013-01-04 00:50:00,28.2,23.1,30.07,SE,135,2.5,5.1,81,0.00,,,-99.99,open2300 version1.11,2013-01-04 05:50:00,
2013-01-04 01:00:00,28.2,23.1,30.07,WSW,238,3.3,6.5,81,0.00,,,-99.99,open2300 version1.11,2013-01-04 06:00:00,
2013-01-04 01:05:00,28.2,23.1,30.07,WSW,246,3.8,8.5,81,0.00,,,-99.99,open2300 version1.11,2013-01-04 06:05:00,
2013-01-04 01:10:00,28.2,23.1,30.07,WSW,243,2.9,5.4,81,0.00,,,-99.99,open2300 version1.11,2013-01-04 06:10:00,
2013-01-04 01:20:00,28.6,23.5,30.07,South,176,3.4,6.0,81,0.00,,,-99.99,open2300 version1.11,2013-01-04 06:20:00,
2013-01-04 01:25:00,28.6,23.5,30.06,SW,225,3.2,4.9,81,0.00,,,-99.99,open2300 version1.11,2013-01-04 06:25:00,
2013-01-04 01:30:00,28.6,23.5,30.06,WSW,246,3.4,6.0,81,0.00,,,-99.99,open2300 version1.11,2013-01-04 06:30:00,
2013-01-04 01:35:00,28.6,23.5,30.06,SSE,162,3.1,5.8,81,0.00,,,-99.99,open2300 version1.11,2013-01-04 06:35:00,
2013-01-04 01:40:00,28.6,23.5,30.06,WSW,237,3.6,6.5,81,0.00,,,-99.99,open2300 version1.11,2013-01-04 06:40:00,
2013-01-04 01:45:00,28.6,23.5,30.06,SW,234,3.6,6.5,81,0.00,,,-99.99,open2300 version1.11,2013-01-04 06:45:00,
2013-01-04 01:50:00,28.6,23.5,30.06,SW,225,2.5,4.9,81,0.00,,,-99.99,open2300 version1.11,2013-01-04 06:50:00,
2013-01-04 01:55:00,28.6,23.5,30.05,SW,229,3.8,8.9,81,0.00,,,-99.99,open2300 version1.11,2013-01-04 06:55:00,
2013-01-04 02:00:00,28.6,23.5,30.06,SW,234,4.4,7.4,81,0.00,,,-99.99,open2300 version1.11,2013-01-04 07:00:00,
2013-01-04 02:10:00,28.8,23.6,30.05,SW,232,4.5,7.4,81,0.00,,,-99.99,open2300 version1.11,2013-01-04 07:10:00,
2013-01-04 02:15:00,28.8,23.6,30.05,WSW,246,4.4,7.4,81,0.00,,,-99.99,open2300 version1.11,2013-01-04 07:15:00,
2013-01-04 02:20:00,28.8,23.6,30.05,WSW,254,4.5,6.9,81,0.00,,,-99.99,open2300 version1.11,2013-01-04 07:20:00,
2013-01-04 02:30:00,28.8,23.6,30.05,WSW,237,4.5,7.6,81,0.00,,,-99.99,open2300 version1.11,2013-01-04 07:30:00,
2013-01-04 02:40:00,28.9,23.8,30.06,SW,225,4.0,6.9,81,0.00,,,-99.99,open2300 version1.11,2013-01-04 07:40:00,
2013-01-04 02:45:00,28.9,23.8,30.05,West,262,4.8,8.5,81,0.00,,,-99.99,open2300 version1.11,2013-01-04 07:45:00,
2013-01-04 02:55:00,28.9,23.5,30.06,WSW,249,4.7,10.1,80,0.00,,,-99.99,open2300 version1.11,2013-01-04 07:55:00,
2013-01-04 03:05:00,28.9,23.5,30.05,WSW,244,4.2,6.5,80,0.00,,,-99.99,open2300 version1.11,2013-01-04 08:05:00,
2013-01-04 03:10:00,28.9,23.5,30.05,WSW,243,3.1,5.1,80,0.00,,,-99.99,open2300 version1.11,2013-01-04 08:10:00,
2013-01-04 03:20:00,28.9,23.5,30.05,WSW,243,5.0,8.1,80,0.00,,,-99.99,open2300 version1.11,2013-01-04 08:20:00,
2013-01-04 03:25:00,28.9,23.5,30.05,WSW,237,4.7,8.5,80,0.00,,,-99.99,open2300 version1.11,2013-01-04 08:25:00,
2013-01-04 03:30:00,28.9,23.5,30.05,WSW,250,3.7,8.3,80,0.00,,,-99.99,open2300 version1.11,2013-01-04 08:30:00,
2013-01-04 03:35:00,28.8,23.4,30.05,WSW,248,4.7,8.7,80,0.00,,,-99.99,open2300 version1.11,2013-01-04 08:35:00,
2013-01-04 03:45:00,28.8,23.4,30.05,WSW,247,6.8,13.2,80,0.00,,,-99.99,open2300 version1.11,2013-01-04 08:45:00,
2013-01-04 03:50:00,28.8,23.4,30.04,WSW,253,4.4,9.2,80,0.00,,,-99.99,open2300 version1.11,2013-01-04 08:50:00,
2013-01-04 03:55:00,28.8,23.4,30.04,WSW,239,4.3,7.8,80,0.00,,,-99.99,open2300 version1.11,2013-01-04 08:55:00,
2013-01-04 04:00:00,28.8,23.4,30.04,WSW,239,4.1,6.9,80,0.00,,,-99.99,open2300 version1.11,2013-01-04 09:00:00,
2013-01-04 04:10:00,28.6,23.2,30.03,WSW,251,4.6,8.7,80,0.00,,,-99.99,open2300 version1.11,2013-01-04 09:10:00,
2013-01-04 04:20:00,28.6,23.2,30.03,WSW,252,4.7,9.4,80,0.00,,,-99.99,open2300 version1.11,2013-01-04 09:20:00,
2013-01-04 04:30:00,28.6,23.2,30.03,WSW,242,5.0,8.3,80,0.00,,,-99.99,open2300 version1.11,2013-01-04 09:30:00,
2013-01-04 04:35:00,28.6,23.2,30.04,WSW,243,6.5,11.2,80,0.00,,,-99.99,open2300 version1.11,2013-01-04 09:35:00,
2013-01-04 04:40:00,28.6,22.9,30.03,WSW,248,4.7,6.5,79,0.00,,,-99.99,open2300 version1.11,2013-01-04 09:40:00,
2013-01-04 04:50:00,28.6,22.9,30.03,WSW,244,4.5,6.3,79,0.00,,,-99.99,open2300 version1.11,2013-01-04 09:50:00,
2013-01-04 04:55:00,28.6,22.9,30.03,WSW,248,4.9,8.5,79,0.00,,,-99.99,open2300 version1.11,2013-01-04 09:55:00,
2013-01-04 05:00:00,28.6,22.9,30.03,WSW,241,7.5,10.7,79,0.00,,,-99.99,open2300 version1.11,2013-01-04 10:00:00,
2013-01-04 05:05:00,28.6,22.9,30.03,WSW,250,4.8,7.4,79,0.00,,,-99.99,open2300 version1.11,2013-01-04 10:05:00,
2013-01-04 05:10:00,28.6,22.9,30.03,WSW,241,4.4,7.8,79,0.00,,,-99.99,open2300 version1.11,2013-01-04 10:10:00,
2013-01-04 05:20:00,28.6,22.6,30.02,WSW,252,4.8,8.7,78,0.00,,,-99.99,open2300 version1.11,2013-01-04 10:20:00,
2013-01-04 05:30:00,28.6,22.6,30.03,WSW,255,7.0,12.3,78,0.00,,,-99.99,open2300 version1.11,2013-01-04 10:30:00,
2013-01-04 05:35:00,28.4,22.4,30.02,WSW,245,7.5,11.0,78,0.00,,,-99.99,open2300 version1.11,2013-01-04 10:35:00,
2013-01-04 05:40:00,28.4,22.4,30.02,WSW,241,6.7,12.3,78,0.00,,,-99.99,open2300 version1.11,2013-01-04 10:40:00,
2013-01-04 05:45:00,28.2,22.2,30.02,WSW,251,5.1,7.8,78,0.00,,,-99.99,open2300 version1.11,2013-01-04 10:45:00,
2013-01-04 05:50:00,28.2,22.2,30.02,WSW,255,4.8,10.1,78,0.00,,,-99.99,open2300 version1.11,2013-01-04 10:50:00,
2013-01-04 05:55:00,28.2,22.2,30.02,WSW,252,4.7,7.6,78,0.00,,,-99.99,open2300 version1.11,2013-01-04 10:55:00,
2013-01-04 06:00:00,28.2,22.2,30.02,WSW,247,4.3,8.1,78,0.00,,,-99.99,open2300 version1.11,2013-01-04 11:00:00,
2013-01-04 06:05:00,28.2,22.2,30.02,WSW,241,4.0,6.5,78,0.00,,,-99.99,open2300 version1.11,2013-01-04 11:05:00,
2013-01-04 06:15:00,28.2,22.2,30.02,WSW,239,4.6,7.4,78,0.00,,,-99.99,open2300 version1.11,2013-01-04 11:15:00,
2013-01-04 06:20:00,28.2,22.2,30.02,WSW,256,6.1,10.7,78,0.00,,,-99.99,open2300 version1.11,2013-01-04 11:20:00,
2013-01-04 06:25:00,28.2,22.2,30.02,WSW,246,5.6,11.9,78,0.00,,,-99.99,open2300 version1.11,2013-01-04 11:25:00,
2013-01-04 06:30:00,28.2,22.2,30.02,WSW,250,6.7,13.0,78,0.00,,,-99.99,open2300 version1.11,2013-01-04 11:30:00,
2013-01-04 06:35:00,28.0,22.0,30.02,WSW,241,7.8,13.9,78,0.00,,,-99.99,open2300 version1.11,2013-01-04 11:35:00,
2013-01-04 06:40:00,28.0,22.0,30.02,WSW,251,4.1,7.2,78,0.00,,,-99.99,open2300 version1.11,2013-01-04 11:40:00,
2013-01-04 06:45:00,27.7,21.7,30.02,WSW,245,4.5,8.9,78,0.00,,,-99.99,open2300 version1.11,2013-01-04 11:45:00,
2013-01-04 06:50:00,27.7,21.7,30.03,SW,236,4.4,7.8,78,0.00,,,-99.99,open2300 version1.11,2013-01-04 11:50:00,
2013-01-04 06:55:00,27.7,21.7,30.03,WSW,246,4.8,7.4,78,0.00,,,-99.99,open2300 version1.11,2013-01-04 11:55:00,
2013-01-04 07:00:00,27.5,21.5,30.03,WSW,254,4.7,8.3,78,0.00,,,-99.99,open2300 version1.11,2013-01-04 12:00:00,
2013-01-04 07:10:00,27.5,21.5,30.03,West,261,3.7,7.4,78,0.00,,,-99.99,open2300 version1.11,2013-01-04 12:10:00,
2013-01-04 07:15:00,27.3,21.3,30.03,WSW,250,4.9,9.4,78,0.00,,,-99.99,open2300 version1.11,2013-01-04 12:15:00,
2013-01-04 07:20:00,27.3,21.3,30.03,WSW,246,4.3,8.7,78,0.00,,,-99.99,open2300 version1.11,2013-01-04 12:20:00,
2013-01-04 07:25:00,27.3,21.3,30.03,WSW,252,5.8,8.1,78,0.00,,,-99.99,open2300 version1.11,2013-01-04 12:25:00,
2013-01-04 07:30:00,27.1,21.1,30.03,WSW,250,5.2,8.7,78,0.00,,,-99.99,open2300 version1.11,2013-01-04 12:30:00,
2013-01-04 07:35:00,27.1,21.1,30.03,WSW,244,5.8,7.8,78,0.00,,,-99.99,open2300 version1.11,2013-01-04 12:35:00,
2013-01-04 07:40:00,27.0,20.9,30.03,WSW,246,4.7,7.2,78,0.00,,,-99.99,open2300 version1.11,2013-01-04 12:40:00,
2013-01-04 07:45:00,27.0,20.9,30.03,WSW,241,4.7,10.3,78,0.00,,,-99.99,open2300 version1.11,2013-01-04 12:45:00,
2013-01-04 07:55:00,26.6,20.6,30.02,SW,225,4.2,7.4,78,0.00,,,-99.99,open2300 version1.11,2013-01-04 12:55:00,
2013-01-04 08:00:00,26.4,20.4,30.02,WSW,240,3.4,7.2,78,0.00,,,-99.99,open2300 version1.11,2013-01-04 13:00:00,
2013-01-04 08:05:00,26.4,20.4,30.02,WSW,242,3.7,6.7,78,0.00,,,-99.99,open2300 version1.11,2013-01-04 13:05:00,
2013-01-04 08:10:00,26.4,20.4,30.02,WSW,248,4.3,8.5,78,0.00,,,-99.99,open2300 version1.11,2013-01-04 13:10:00,
2013-01-04 08:15:00,26.4,20.4,30.02,SW,235,6.8,9.4,78,0.00,,,-99.99,open2300 version1.11,2013-01-04 13:15:00,
2013-01-04 08:25:00,26.2,20.2,30.02,WSW,237,5.9,10.5,78,0.00,,,-99.99,open2300 version1.11,2013-01-04 13:25:00,
2013-01-04 08:30:00,26.2,20.2,30.03,WSW,247,5.8,8.7,78,0.00,,,-99.99,open2300 version1.11,2013-01-04 13:30:00,
2013-01-04 08:35:00,26.2,20.6,30.03,WSW,248,5.8,11.2,79,0.00,,,-99.99,open2300 version1.11,2013-01-04 13:35:00,
2013-01-04 08:40:00,26.2,20.6,30.03,WSW,245,5.0,9.2,79,0.00,,,-99.99,open2300 version1.11,2013-01-04 13:40:00,
2013-01-04 08:45:00,26.2,20.6,30.03,WSW,246,3.6,7.4,79,0.00,,,-99.99,open2300 version1.11,2013-01-04 13:45:00,
2013-01-04 08:50:00,26.1,20.4,30.03,SW,235,4.5,9.6,79,0.00,,,-99.99,open2300 version1.11,2013-01-04 13:50:00,
2013-01-04 08:55:00,26.1,20.4,30.03,SSW,208,4.8,8.1,79,0.00,,,-99.99,open2300 version1.11,2013-01-04 13:55:00,
2013-01-04 09:00:00,25.9,20.2,30.03,WSW,248,4.0,6.9,79,0.00,,,-99.99,open2300 version1.11,2013-01-04 14:00:00,
2013-01-04 09:05:00,26.1,20.4,30.03,South,184,4.4,8.1,79,0.00,,,-99.99,open2300 version1.11,2013-01-04 14:05:00,
2013-01-04 09:10:00,25.9,20.2,30.03,WSW,253,4.7,9.2,79,0.00,,,-99.99,open2300 version1.11,2013-01-04 14:10:00,
2013-01-04 09:15:00,25.9,20.2,30.03,WSW,238,5.5,8.9,79,0.00,,,-99.99,open2300 version1.11,2013-01-04 14:15:00,
2013-01-04 09:25:00,25.7,20.1,30.03,WSW,245,4.7,10.1,79,0.00,,,-99.99,open2300 version1.11,2013-01-04 14:25:00,
2013-01-04 09:35:00,25.9,20.2,30.03,WSW,245,3.8,7.2,79,0.00,,,-99.99,open2300 version1.11,2013-01-04 14:35:00,
2013-01-04 09:40:00,25.9,20.2,30.03,WSW,249,6.3,10.1,79,0.00,,,-99.99,open2300 version1.11,2013-01-04 14:40:00,
2013-01-04 09:45:00,25.9,20.2,30.03,WSW,250,4.8,8.1,79,0.00,,,-99.99,open2300 version1.11,2013-01-04 14:45:00,
2013-01-04 09:50:00,26.1,20.4,30.03,WSW,241,5.0,8.3,79,0.00,,,-99.99,open2300 version1.11,2013-01-04 14:50:00,
2013-01-04 09:55:00,26.2,20.6,30.03,WSW,251,5.4,10.3,79,0.00,,,-99.99,open2300 version1.11,2013-01-04 14:55:00,
2013-01-04 10:05:00,26.4,20.4,30.04,WSW,249,6.1,10.3,78,0.00,,,-99.99,open2300 version1.11,2013-01-04 15:05:00,
2013-01-04 10:10:00,26.4,20.4,30.04,WSW,238,7.0,12.3,78,0.00,,,-99.99,open2300 version1.11,2013-01-04 15:10:00,
2013-01-04 10:15:00,26.4,20.4,30.03,WSW,250,6.7,10.5,78,0.00,,,-99.99,open2300 version1.11,2013-01-04 15:15:00,
2013-01-04 10:20:00,26.4,20.4,30.03,WSW,240,6.8,10.3,78,0.00,,,-99.99,open2300 version1.11,2013-01-04 15:20:00,
2013-01-04 10:30:00,26.8,20.8,30.04,WSW,249,7.7,13.9,78,0.00,,,-99.99,open2300 version1.11,2013-01-04 15:30:00,
2013-01-04 10:35:00,27.0,20.9,30.04,WSW,252,6.1,10.1,78,0.00,,,-99.99,open2300 version1.11,2013-01-04 15:35:00,
2013-01-04 10:40:00,27.1,21.1,30.04,WSW,251,6.2,9.8,78,0.00,,,-99.99,open2300 version1.11,2013-01-04 15:40:00,
2013-01-04 10:45:00,27.3,21.0,30.03,WSW,247,6.9,11.9,77,0.00,,,-99.99,open2300 version1.11,2013-01-04 15:45:00,
2013-01-04 10:50:00,27.5,21.2,30.03,WSW,252,6.5,12.8,77,0.00,,,-99.99,open2300 version1.11,2013-01-04 15:50:00,
2013-01-04 10:55:00,27.9,21.5,30.03,WSW,252,6.0,11.9,77,0.00,,,-99.99,open2300 version1.11,2013-01-04 15:55:00,
2013-01-04 11:00:00,28.2,21.9,30.03,WSW,245,7.2,12.1,77,0.00,,,-99.99,open2300 version1.11,2013-01-04 16:00:00,
2013-01-04 11:05:00,28.2,21.6,30.03,WSW,250,5.5,11.2,76,0.00,,,-99.99,open2300 version1.11,2013-01-04 16:05:00,
2013-01-04 11:10:00,28.6,21.9,30.04,WSW,251,7.5,11.2,76,0.00,,,-99.99,open2300 version1.11,2013-01-04 16:10:00,
2013-01-04 11:15:00,28.6,21.6,30.03,WSW,256,7.4,11.6,75,0.00,,,-99.99,open2300 version1.11,2013-01-04 16:15:00,
2013-01-04 11:25:00,28.9,22.0,30.03,WSW,256,7.3,10.1,75,0.00,,,-99.99,open2300 version1.11,2013-01-04 16:25:00,
2013-01-04 11:35:00,28.8,21.8,30.03,WSW,247,7.0,11.4,75,0.00,,,-99.99,open2300 version1.11,2013-01-04 16:35:00,
2013-01-04 11:45:00,28.9,21.7,30.02,WSW,254,8.0,13.2,74,0.00,,,-99.99,open2300 version1.11,2013-01-04 16:45:00,
2013-01-04 11:55:00,29.1,21.8,30.02,WSW,255,6.4,11.2,74,0.00,,,-99.99,open2300 version1.11,2013-01-04 16:55:00,
2013-01-04 12:00:00,29.3,22.0,30.02,WSW,247,6.2,9.8,74,0.00,,,-99.99,open2300 version1.11,2013-01-04 17:00:00,
2013-01-04 12:10:00,29.3,22.0,30.01,WSW,253,7.1,10.7,74,0.00,,,-99.99,open2300 version1.11,2013-01-04 17:10:00,
2013-01-04 12:15:00,29.3,22.0,30.00,WSW,245,6.1,10.1,74,0.00,,,-99.99,open2300 version1.11,2013-01-04 17:15:00,
2013-01-04 12:20:00,29.5,22.2,30.01,WSW,246,6.3,10.1,74,0.00,,,-99.99,open2300 version1.11,2013-01-04 17:20:00,
2013-01-04 12:25:00,29.5,22.2,30.00,WSW,255,4.9,7.6,74,0.00,,,-99.99,open2300 version1.11,2013-01-04 17:25:00,
2013-01-04 12:35:00,29.8,22.5,30.00,WSW,250,6.1,8.7,74,0.00,,,-99.99,open2300 version1.11,2013-01-04 17:35:00,
2013-01-04 12:40:00,30.0,22.4,30.00,WSW,245,5.0,8.3,73,0.00,,,-99.99,open2300 version1.11,2013-01-04 17:40:00,
2013-01-04 12:50:00,30.0,22.4,29.98,WSW,240,5.8,9.8,73,0.00,,,-99.99,open2300 version1.11,2013-01-04 17:50:00,
2013-01-04 12:55:00,30.0,22.4,29.98,WSW,242,4.0,7.4,73,0.00,,,-99.99,open2300 version1.11,2013-01-04 17:55:00,
2013-01-04 13:05:00,30.4,22.4,29.98,WSW,238,5.2,9.2,72,0.00,,,-99.99,open2300 version1.11,2013-01-04 18:05:00,
2013-01-04 13:10:00,30.7,22.8,29.98,WSW,243,4.7,7.6,72,0.00,,,-99.99,open2300 version1.11,2013-01-04 18:10:00,
2013-01-04 13:15:00,30.7,22.8,29.98,WSW,244,5.5,9.2,72,0.00,,,-99.99,open2300 version1.11,2013-01-04 18:15:00,
2013-01-04 13:20:00,31.1,23.1,29.98,WSW,243,5.7,10.5,72,0.00,,,-99.99,open2300 version1.11,2013-01-04 18:20:00,
2013-01-04 13:25:00,31.3,23.0,29.97,WSW,246,5.5,9.6,71,0.00,,,-99.99,open2300 version1.11,2013-01-04 18:25:00,
2013-01-04 13:30:00,31.3,23.0,29.97,WSW,245,6.0,9.6,71,0.00,,,-99.99,open2300 version1.11,2013-01-04 18:30:00,
2013-01-04 13:35:00,31.6,23.3,29.97,WSW,241,5.1,8.7,71,0.00,,,-99.99,open2300 version1.11,2013-01-04 18:35:00,
2013-01-04 13:40:00,31.8,23.5,29.97,WSW,244,6.1,10.7,71,0.00,,,-99.99,open2300 version1.11,2013-01-04 18:40:00,
2013-01-04 13:45:00,31.8,23.5,29.96,WSW,255,5.6,10.3,71,0.00,,,-99.99,open2300 version1.11,2013-01-04 18:45:00,
2013-01-04 13:50:00,32.2,23.9,29.96,WSW,243,4.8,7.6,71,0.00,,,-99.99,open2300 version1.11,2013-01-04 18:50:00,
2013-01-04 13:55:00,32.2,23.9,29.97,WSW,252,3.8,6.7,71,0.00,,,-99.99,open2300 version1.11,2013-01-04 18:55:00,
2013-01-04 14:00:00,32.4,23.7,29.96,WSW,251,6.9,11.2,70,0.00,,,-99.99,open2300 version1.11,2013-01-04 19:00:00,
2013-01-04 14:10:00,32.5,23.9,29.97,WSW,248,6.5,10.3,70,0.00,,,-99.99,open2300 version1.11,2013-01-04 19:10:00,
2013-01-04 14:15:00,32.5,23.9,29.96,WSW,254,6.5,11.0,70,0.00,,,-99.99,open2300 version1.11,2013-01-04 19:15:00,
2013-01-04 14:20:00,32.7,24.0,29.96,West,261,4.8,8.3,70,0.00,,,-99.99,open2300 version1.11,2013-01-04 19:20:00,
2013-01-04 14:25:00,32.7,24.0,29.96,SW,228,5.1,8.7,70,0.00,,,-99.99,open2300 version1.11,2013-01-04 19:25:00,
2013-01-04 14:30:00,32.7,23.6,29.97,WSW,247,5.6,9.2,69,0.00,,,-99.99,open2300 version1.11,2013-01-04 19:30:00,
2013-01-04 14:40:00,32.5,23.5,29.97,WSW,245,9.2,12.5,69,0.00,,,-99.99,open2300 version1.11,2013-01-04 19:40:00,
2013-01-04 14:50:00,32.4,23.3,29.97,WSW,245,5.2,8.3,69,0.00,,,-99.99,open2300 version1.11,2013-01-04 19:50:00,
2013-01-04 14:55:00,32.4,23.3,29.97,WSW,250,5.3,8.3,69,0.00,,,-99.99,open2300 version1.11,2013-01-04 19:55:00,
2013-01-04 15:05:00,32.2,23.2,29.97,SW,234,5.8,8.7,69,0.00,,,-99.99,open2300 version1.11,2013-01-04 20:05:00,
2013-01-04 15:15:00,31.8,22.8,29.97,WSW,250,3.0,6.3,69,0.00,,,-99.99,open2300 version1.11,2013-01-04 20:15:00,
2013-01-04 15:20:00,31.8,22.8,29.98,WSW,249,6.5,10.3,69,0.00,,,-99.99,open2300 version1.11,2013-01-04 20:20:00,
2013-01-04 15:30:00,31.6,22.6,29.98,WSW,238,5.7,9.8,69,0.00,,,-99.99,open2300 version1.11,2013-01-04 20:30:00,
2013-01-04 15:40:00,31.1,22.1,29.98,WSW,247,7.1,12.8,69,0.00,,,-99.99,open2300 version1.11,2013-01-04 20:40:00,
2013-01-04 15:45:00,30.9,21.9,29.98,WSW,239,7.4,11.6,69,0.00,,,-99.99,open2300 version1.11,2013-01-04 20:45:00,
2013-01-04 15:55:00,30.7,21.7,29.98,SW,234,6.1,10.7,69,0.00,,,-99.99,open2300 version1.11,2013-01-04 20:55:00,
2013-01-04 16:00:00,30.6,21.9,29.98,WSW,238,6.0,10.1,70,0.00,,,-99.99,open2300 version1.11,2013-01-04 21:00:00,
2013-01-04 16:05:00,30.6,21.9,29.98,WSW,244,7.1,13.0,70,0.00,,,-99.99,open2300 version1.11,2013-01-04 21:05:00,
2013-01-04 16:10:00,30.4,21.7,29.98,WSW,240,4.9,7.8,70,0.00,,,-99.99,open2300 version1.11,2013-01-04 21:10:00,
2013-01-04 16:20:00,30.4,21.7,29.99,WSW,246,5.0,10.1,70,0.00,,,-99.99,open2300 version1.11,2013-01-04 21:20:00,
2013-01-04 16:25:00,30.4,21.7,29.99,WSW,251,7.0,11.6,70,0.00,,,-99.99,open2300 version1.11,2013-01-04 21:25:00,
2013-01-04 16:30:00,30.0,21.4,30.00,WSW,247,6.4,10.1,70,0.00,,,-99.99,open2300 version1.11,2013-01-04 21:30:00,
2013-01-04 16:35:00,30.0,21.4,30.00,WSW,245,6.6,9.8,70,0.00,,,-99.99,open2300 version1.11,2013-01-04 21:35:00,
2013-01-04 16:40:00,29.8,21.2,30.00,WSW,256,5.3,9.8,70,0.00,,,-99.99,open2300 version1.11,2013-01-04 21:40:00,
2013-01-04 16:45:00,29.7,21.1,30.00,WSW,252,5.7,10.7,70,0.00,,,-99.99,open2300 version1.11,2013-01-04 21:45:00,
2013-01-04 16:50:00,29.5,20.9,30.00,WSW,248,7.2,11.4,70,0.00,,,-99.99,open2300 version1.11,2013-01-04 21:50:00,
2013-01-04 17:00:00,29.1,20.6,30.00,WSW,243,7.2,12.1,70,0.00,,,-99.99,open2300 version1.11,2013-01-04 22:00:00,
2013-01-04 17:05:00,28.9,20.4,30.00,WSW,251,5.3,8.9,70,0.00,,,-99.99,open2300 version1.11,2013-01-04 22:05:00,
2013-01-04 17:10:00,28.8,20.3,30.00,WSW,249,5.7,9.4,70,0.00,,,-99.99,open2300 version1.11,2013-01-04 22:10:00,
2013-01-04 17:15:00,28.6,20.1,30.01,WSW,242,6.7,10.1,70,0.00,,,-99.99,open2300 version1.11,2013-01-04 22:15:00,
2013-01-04 17:25:00,28.2,20.1,30.01,WSW,246,5.3,8.7,71,0.00,,,-99.99,open2300 version1.11,2013-01-04 22:25:00,
2013-01-04 17:30:00,28.0,19.9,30.02,WSW,258,4.5,8.3,71,0.00,,,-99.99,open2300 version1.11,2013-01-04 22:30:00,
2013-01-04 17:35:00,27.7,19.5,30.02,WSW,243,5.2,8.3,71,0.00,,,-99.99,open2300 version1.11,2013-01-04 22:35:00,
2013-01-04 17:40:00,27.7,19.5,30.02,WSW,249,5.4,7.4,71,0.00,,,-99.99,open2300 version1.11,2013-01-04 22:40:00,
2013-01-04 17:45:00,27.7,19.5,30.02,WSW,252,4.6,7.2,71,0.00,,,-99.99,open2300 version1.11,2013-01-04 22:45:00,
2013-01-04 17:50:00,27.5,19.4,30.03,WSW,246,5.6,9.2,71,0.00,,,-99.99,open2300 version1.11,2013-01-04 22:50:00,
2013-01-04 17:55:00,27.3,19.2,30.03,WSW,250,4.9,7.2,71,0.00,,,-99.99,open2300 version1.11,2013-01-04 22:55:00,
2013-01-04 18:00:00,27.3,19.5,30.03,WSW,256,4.3,9.4,72,0.00,,,-99.99,open2300 version1.11,2013-01-04 23:00:00,
2013-01-04 18:05:00,27.3,19.5,30.03,SSE,151,4.2,6.5,72,0.00,,,-99.99,open2300 version1.11,2013-01-04 23:05:00,
2013-01-04 18:10:00,27.1,19.3,30.04,WSW,243,5.1,8.7,72,0.00,,,-99.99,open2300 version1.11,2013-01-04 23:10:00,
2013-01-04 18:15:00,27.1,19.3,30.04,WSW,242,4.9,8.1,72,0.00,,,-99.99,open2300 version1.11,2013-01-04 23:15:00,
2013-01-04 18:20:00,27.1,19.3,30.04,WSW,238,4.1,6.0,72,0.00,,,-99.99,open2300 version1.11,2013-01-04 23:20:00,
2013-01-04 18:30:00,27.0,19.4,30.04,SSE,147,4.5,8.3,73,0.00,,,-99.99,open2300 version1.11,2013-01-04 23:30:00,
2013-01-04 18:35:00,27.0,19.4,30.04,SW,235,4.2,7.8,73,0.00,,,-99.99,open2300 version1.11,2013-01-04 23:35:00,
2013-01-04 18:40:00,27.0,19.4,30.05,WSW,244,4.0,6.3,73,0.00,,,-99.99,open2300 version1.11,2013-01-04 23:40:00,
2013-01-04 18:50:00,26.8,19.2,30.05,WSW,248,3.8,6.3,73,0.00,,,-99.99,open2300 version1.11,2013-01-04 23:50:00,
2013-01-04 18:55:00,26.8,19.2,30.05,WSW,246,4.6,7.4,73,0.00,,,-99.99,open2300 version1.11,2013-01-04 23:55:00,
2013-01-04 19:00:00,26.6,19.1,30.05,WSW,241,5.2,8.3,73,0.00,,,-99.99,open2300 version1.11,2013-01-05 00:00:00,
2013-01-04 19:05:00,26.4,18.9,30.05,WSW,241,4.2,8.7,73,0.00,,,-99.99,open2300 version1.11,2013-01-05 00:05:00,
2013-01-04 19:10:00,26.4,18.9,30.05,WSW,242,5.3,8.3,73,0.00,,,-99.99,open2300 version1.11,2013-01-05 00:10:00,
2013-01-04 19:15:00,26.4,18.9,30.05,WSW,252,4.7,7.8,73,0.00,,,-99.99,open2300 version1.11,2013-01-05 00:15:00,
2013-01-04 19:20:00,26.4,19.2,30.05,WSW,248,4.8,7.8,74,0.00,,,-99.99,open2300 version1.11,2013-01-05 00:20:00,
2013-01-04 19:25:00,26.4,19.2,30.06,WSW,240,4.2,6.3,74,0.00,,,-99.99,open2300 version1.11,2013-01-05 00:25:00,
2013-01-04 19:35:00,26.2,19.0,30.06,WSW,241,4.6,7.6,74,0.00,,,-99.99,open2300 version1.11,2013-01-05 00:35:00,
2013-01-04 19:40:00,26.2,19.0,30.06,WSW,242,5.6,9.8,74,0.00,,,-99.99,open2300 version1.11,2013-01-05 00:40:00,
2013-01-04 19:45:00,26.2,19.0,30.06,WSW,250,4.3,8.5,74,0.00,,,-99.99,open2300 version1.11,2013-01-05 00:45:00,
2013-01-04 19:55:00,26.2,19.0,30.06,WSW,238,4.0,5.6,74,0.00,,,-99.99,open2300 version1.11,2013-01-05 00:55:00,
2013-01-04 20:00:00,26.2,19.0,30.06,WSW,246,4.6,6.9,74,0.00,,,-99.99,open2300 version1.11,2013-01-05 01:00:00,
2013-01-04 20:05:00,26.1,19.1,30.06,WSW,240,4.3,7.8,75,0.00,,,-99.99,open2300 version1.11,2013-01-05 01:05:00,
2013-01-04 20:10:00,26.1,19.1,30.07,WSW,249,3.6,4.9,75,0.00,,,-99.99,open2300 version1.11,2013-01-05 01:10:00,
2013-01-04 20:20:00,25.9,19.0,30.07,SE,135,3.4,5.6,75,0.00,,,-99.99,open2300 version1.11,2013-01-05 01:20:00,
2013-01-04 20:30:00,25.9,19.0,30.07,WSW,245,3.9,6.5,75,0.00,,,-99.99,open2300 version1.11,2013-01-05 01:30:00,
2013-01-04 20:35:00,25.9,19.0,30.07,SE,145,4.1,6.9,75,0.00,,,-99.99,open2300 version1.11,2013-01-05 01:35:00,
2013-01-04 20:40:00,25.7,18.8,30.07,SE,135,4.3,8.3,75,0.00,,,-99.99,open2300 version1.11,2013-01-05 01:40:00,
2013-01-04 20:45:00,25.7,18.8,30.07,WSW,242,3.9,6.5,75,0.00,,,-99.99,open2300 version1.11,2013-01-05 01:45:00,
2013-01-04 20:50:00,25.7,19.1,30.07,SSE,150,4.4,6.7,76,0.00,,,-99.99,open2300 version1.11,2013-01-05 01:50:00,
2013-01-04 20:55:00,25.5,18.9,30.07,SW,235,4.5,7.6,76,0.00,,,-99.99,open2300 version1.11,2013-01-05 01:55:00,
2013-01-04 21:00:00,25.5,18.9,30.07,SSE,162,4.5,6.7,76,0.00,,,-99.99,open2300 version1.11,2013-01-05 02:00:00,
2013-01-04 21:05:00,25.5,18.9,30.08,WSW,248,3.5,6.3,76,0.00,,,-99.99,open2300 version1.11,2013-01-05 02:05:00,
2013-01-04 21:10:00,25.5,18.9,30.08,WSW,252,4.0,6.3,76,0.00,,,-99.99,open2300 version1.11,2013-01-05 02:10:00,
2013-01-04 21:15:00,25.5,18.9,30.08,WSW,248,3.6,6.5,76,0.00,,,-99.99,open2300 version1.11,2013-01-05 02:15:00,
2013-01-04 21:20:00,25.5,18.9,30.08,SE,135,3.2,6.5,76,0.00,,,-99.99,open2300 version1.11,2013-01-05 02:20:00,
2013-01-04 21:30:00,25.5,18.9,30.08,WSW,248,3.4,5.1,76,0.00,,,-99.99,open2300 version1.11,2013-01-05 02:30:00,
2013-01-04 21:35:00,25.5,18.9,30.08,WSW,258,3.4,5.6,76,0.00,,,-99.99,open2300 version1.11,2013-01-05 02:35:00,
2013-01-04 21:40:00,25.3,19.1,30.09,WSW,253,3.9,7.2,77,0.00,,,-99.99,open2300 version1.11,2013-01-05 02:40:00,
2013-01-04 21:45:00,25.3,19.1,30.09,WSW,239,3.5,6.5,77,0.00,,,-99.99,open2300 version1.11,2013-01-05 02:45:00,
2013-01-04 21:50:00,25.3,19.1,30.09,WSW,243,3.4,6.3,77,0.00,,,-99.99,open2300 version1.11,2013-01-05 02:50:00,
2013-01-04 21:55:00,25.3,19.1,30.09,SE,135,2.7,4.9,77,0.00,,,-99.99,open2300 version1.11,2013-01-05 02:55:00,
2013-01-04 22:00:00,25.3,19.1,30.09,West,265,3.0,4.7,77,0.00,,,-99.99,open2300 version1.11,2013-01-05 03:00:00,
2013-01-04 22:05:00,25.3,19.1,30.10,WSW,240,3.6,7.6,77,0.00,,,-99.99,open2300 version1.11,2013-01-05 03:05:00,
2013-01-04 22:10:00,25.3,19.1,30.10,SW,236,4.7,8.1,77,0.00,,,-99.99,open2300 version1.11,2013-01-05 03:10:00,
2013-01-04 22:15:00,25.3,19.1,30.10,West,260,2.9,4.7,77,0.00,,,-99.99,open2300 version1.11,2013-01-05 03:15:00,
2013-01-04 22:20:00,25.3,19.1,30.11,West,262,3.3,8.1,77,0.00,,,-99.99,open2300 version1.11,2013-01-05 03:20:00,
2013-01-04 22:30:00,25.2,19.3,30.11,WSW,237,4.3,6.9,78,0.00,,,-99.99,open2300 version1.11,2013-01-05 03:30:00,
2013-01-04 22:35:00,25.2,19.3,30.11,WSW,240,3.4,6.0,78,0.00,,,-99.99,open2300 version1.11,2013-01-05 03:35:00,
2013-01-04 22:40:00,25.2,19.3,30.11,WSW,255,3.2,5.8,78,0.00,,,-99.99,open2300 version1.11,2013-01-05 03:40:00,
2013-01-04 22:45:00,25.2,19.3,30.11,WSW,250,3.5,5.6,78,0.00,,,-99.99,open2300 version1.11,2013-01-05 03:45:00,
2013-01-04 22:50:00,25.2,19.3,30.11,WSW,250,3.1,5.6,78,0.00,,,-99.99,open2300 version1.11,2013-01-05 03:50:00,
2013-01-04 23:00:00,25.0,19.1,30.12,WSW,248,2.9,4.5,78,0.00,,,-99.99,open2300 version1.11,2013-01-05 04:00:00,
2013-01-04 23:05:00,25.0,19.1,30.12,WSW,254,2.7,5.1,78,0.00,,,-99.99,open2300 version1.11,2013-01-05 04:05:00,
2013-01-04 23:15:00,25.0,19.1,30.12,WSW,247,1.2,3.4,78,0.00,,,-99.99,open2300 version1.11,2013-01-05 04:15:00,
2013-01-04 23:20:00,25.0,19.1,30.12,WSW,247,2.0,4.5,78,0.00,,,-99.99,open2300 version1.11,2013-01-05 04:20:00,
2013-01-04 23:30:00,24.8,18.9,30.12,SE,135,1.1,4.2,78,0.00,,,-99.99,open2300 version1.11,2013-01-05 04:30:00,
2013-01-04 23:35:00,24.6,18.8,30.12,SE,135,2.4,4.0,78,0.00,,,-99.99,open2300 version1.11,2013-01-05 04:35:00,
2013-01-04 23:45:00,24.6,19.1,30.13,SE,135,2.1,4.5,79,0.00,,,-99.99,open2300 version1.11,2013-01-05 04:45:00,
2013-01-04 23:50:00,24.6,19.1,30.13,West,271,1.6,6.3,79,0.00,,,-99.99,open2300 version1.11,2013-01-05 04:50:00,